Time;durP1;ratioP1;P1;durP2;ratioP2;P2;SDS_P1;SDS_P2;PMS_P1;PMS_P2;Temp;Humidity;BMP_temperature;BMP_pressure;BME280_temperature;BME280_humidity;BME280_pressure;Samples;Min_cycle;Max_cycle;Signal;HPM_P1;HPM_P2
2022/05/16 00:01:43;;;;;;;5.80;2.50;;;;;;;14.17;38.42;100715.85;117470;1184;23535;-55
2022/05/16 00:04:11;;;;;;;7.00;2.70;;;;;;;14.15;38.52;100719.61;117530;1186;23933;-50
2022/05/16 00:06:40;;;;;;;9.30;2.70;;;;;;;14.13;38.64;100723.20;117472;1185;24706;-51
2022/05/16 00:09:12;;;;;;;8.60;3.30;;;;;;;14.10;38.66;100721.66;117523;1183;21925;-50
2022/05/16 00:11:41;;;;;;;5.80;2.70;;;;;;;14.09;38.76;100726.63;117530;1184;24168;-51
2022/05/16 00:14:10;;;;;;;;;;;;;;;14.10;38.74;100727.31;117500;1184;21837;-51
2022/05/16 00:16:39;;;;;;;6.10;2.50;;;;;;;14.12;38.96;100729.55;117554;1186;24142;-55
2022/05/16 00:19:09;;;;;;;6.50;2.70;;;;;;;14.13;38.98;100732.19;117532;1185;23432;-55
2022/05/16 00:21:38;;;;;;;7.90;3.20;;;;;;;14.15;38.99;100727.91;117531;1184;23551;-51
2022/05/16 00:24:07;;;;;;;4.80;2.20;;;;;;;14.14;39.04;100726.34;117556;1185;24151;-51
2022/05/16 00:26:35;;;;;;;8.80;2.80;;;;;;;14.15;39.11;100726.14;117554;1185;21852;-51
2022/05/16 00:29:04;;;;;;;9.20;2.90;;;;;;;14.14;39.20;100724.20;117544;1183;24738;-55
2022/05/16 00:31:32;;;;;;;7.50;2.40;;;;;;;14.15;39.20;100726.67;117474;1183;21970;-53
2022/05/16 00:34:01;;;;;;;8.30;2.80;;;;;;;14.13;39.29;100728.64;117406;1185;21867;-55
2022/05/16 00:36:30;;;;;;;5.40;2.20;;;;;;;14.12;39.37;100729.73;117367;1185;23566;-56
2022/05/16 00:38:58;;;;;;;6.80;2.70;;;;;;;14.05;39.39;100727.77;117497;1185;21874;-55
2022/05/16 00:41:26;;;;;;;7.30;3.00;;;;;;;14.02;39.47;100729.08;117383;1185;23470;-55
2022/05/16 00:43:58;;;;;;;7.10;2.50;;;;;;;14.02;39.45;100727.84;117304;1186;23448;-56
2022/05/16 00:46:29;;;;;;;8.50;2.60;;;;;;;14.01;39.66;100729.25;117329;1185;23529;-51
2022/05/16 00:48:59;;;;;;;7.30;3.00;;;;;;;14.01;39.69;100735.27;117475;1183;21846;-53
2022/05/16 00:51:34;;;;;;;8.20;3.10;;;;;;;14.04;39.62;100735.37;117569;1185;21851;-50
2022/05/16 00:54:06;;;;;;;8.90;2.90;;;;;;;14.06;39.60;100733.75;117318;1183;21858;-53
2022/05/16 00:56:34;;;;;;;5.30;2.00;;;;;;;14.06;39.56;100735.33;117495;1185;23433;-55
2022/05/16 00:59:03;;;;;;;5.70;2.70;;;;;;;14.06;39.72;100734.27;117408;1186;24155;-55
2022/05/16 01:07:07;;;;;;;6.90;3.00;;;;;;;14.04;39.79;100738.37;117361;1185;24159;-55
2022/05/16 01:09:35;;;;;;;7.80;2.60;;;;;;;14.02;39.81;100737.70;117285;1185;23566;-55
2022/05/16 01:12:06;;;;;;;6.40;2.50;;;;;;;14.01;39.82;100738.60;117359;1184;21847;-51
2022/05/16 01:14:40;;;;;;;7.30;2.60;;;;;;;14.01;39.78;100737.20;117464;1184;24235;-55
2022/05/16 01:17:08;;;;;;;8.00;2.60;;;;;;;13.99;39.90;100736.36;117575;1186;21846;-51
2022/05/16 01:19:37;;;;;;;5.40;2.60;;;;;;;13.97;39.86;100738.48;117545;1186;23544;-51
2022/05/16 01:22:13;;;;;;;7.10;3.50;;;;;;;13.94;39.93;100738.73;117255;1186;24256;-55
2022/05/16 01:24:41;;;;;;;6.20;2.70;;;;;;;13.90;39.90;100736.56;117450;1184;23002;-51
2022/05/16 01:27:09;;;;;;;6.40;2.60;;;;;;;13.85;39.90;100736.30;117437;1185;21859;-51
2022/05/16 01:29:37;;;;;;;6.10;2.20;;;;;;;13.77;39.87;100729.92;117473;1186;23535;-55
2022/05/16 01:32:06;;;;;;;6.00;2.10;;;;;;;13.68;39.85;100727.45;117417;1179;22791;-55
2022/05/16 01:34:35;;;;;;;6.50;2.40;;;;;;;13.60;39.99;100729.54;117511;1186;22797;-53
2022/05/16 01:37:04;;;;;;;6.40;2.60;;;;;;;13.54;39.91;100733.71;117524;1184;23550;-51
2022/05/16 01:39:33;;;;;;;10.30;2.60;;;;;;;13.47;40.11;100731.19;117435;1185;23615;-51
2022/05/16 01:42:03;;;;;;;4.70;2.30;;;;;;;13.44;40.19;100732.67;117434;1185;24138;-51
2022/05/16 01:44:32;;;;;;;9.10;2.40;;;;;;;13.41;40.22;100734.48;117503;1184;22150;-55
2022/05/16 01:47:00;;;;;;;5.10;2.30;;;;;;;13.37;40.23;100734.52;117574;1185;23553;-55
2022/05/16 01:49:37;;;;;;;7.20;2.40;;;;;;;13.35;40.28;100733.50;117464;1186;22911;-55
2022/05/16 01:52:06;;;;;;;6.40;2.30;;;;;;;13.31;40.14;100734.80;117494;1181;21846;-55
2022/05/16 01:54:34;;;;;;;5.00;2.60;;;;;;;13.23;40.30;100736.01;117539;1186;21852;-55
2022/05/16 01:57:03;;;;;;;6.00;2.50;;;;;;;13.15;40.21;100743.19;117537;1185;21852;-55
2022/05/16 01:59:32;;;;;;;8.40;2.80;;;;;;;13.06;40.25;100746.85;117400;1185;21905;-51
2022/05/16 02:02:00;;;;;;;5.00;2.70;;;;;;;12.98;40.24;100747.02;117436;1189;21859;-55
2022/05/16 02:04:30;;;;;;;5.40;2.60;;;;;;;12.89;40.38;100752.23;117523;1186;22484;-51
2022/05/16 02:06:59;;;;;;;5.90;2.60;;;;;;;12.78;40.29;100757.52;117567;1185;21852;-51
2022/05/16 02:09:27;;;;;;;7.60;2.60;;;;;;;12.64;40.34;100756.48;117490;1185;21855;-51
2022/05/16 02:11:56;;;;;;;6.20;2.40;;;;;;;12.52;40.33;100756.33;117560;1185;23557;-55
2022/05/16 02:14:25;;;;;;;6.80;2.20;;;;;;;12.42;40.50;100759.45;117237;1186;24799;-51
2022/05/16 02:16:54;;;;;;;6.10;2.80;;;;;;;12.32;40.47;100762.77;117331;1185;23624;-55
2022/05/16 02:19:22;;;;;;;8.60;2.80;;;;;;;12.27;40.53;100761.77;117509;1185;22149;-55
2022/05/16 02:24:38;;;;;;;4.90;2.40;;;;;;;12.16;40.69;100768.05;117387;1185;23444;-51
2022/05/16 02:27:07;;;;;;;9.40;2.70;;;;;;;12.14;40.74;100769.85;117465;1185;23550;-54
2022/05/16 02:29:36;;;;;;;4.20;2.30;;;;;;;12.12;40.86;100772.88;117546;1186;23458;-55
2022/05/16 02:32:05;;;;;;;6.40;2.60;;;;;;;12.10;40.88;100777.11;117549;1185;23471;-55
2022/05/16 02:34:33;;;;;;;8.00;2.80;;;;;;;12.07;40.96;100781.72;117444;1185;23566;-50
2022/05/16 02:37:02;;;;;;;7.70;3.00;;;;;;;12.05;40.97;100784.38;117447;1186;23538;-55
2022/05/16 02:39:31;;;;;;;8.00;3.20;;;;;;;12.05;41.06;100784.20;117490;1185;22803;-55
2022/05/16 02:42:00;;;;;;;6.90;2.70;;;;;;;12.06;41.21;100782.26;117435;1185;23541;-54
2022/05/16 02:44:28;;;;;;;6.40;2.60;;;;;;;12.08;41.27;100784.16;117484;1184;22653;-55
2022/05/16 02:46:56;;;;;;;8.90;2.90;;;;;;;12.10;41.24;100786.09;117504;1186;21852;-55
2022/05/16 02:49:26;;;;;;;7.20;3.00;;;;;;;12.12;41.24;100789.58;117497;1185;22912;-55
2022/05/16 02:51:54;;;;;;;7.70;3.10;;;;;;;12.15;41.33;100793.04;117503;1184;21940;-55
2022/05/16 02:54:23;;;;;;;5.90;2.70;;;;;;;12.19;41.46;100795.45;117316;1185;23678;-56
2022/05/16 02:56:52;;;;;;;8.10;2.90;;;;;;;12.25;41.49;100794.52;117323;1185;23547;-55
2022/05/16 02:59:23;;;;;;;8.10;3.10;;;;;;;12.31;41.53;100796.55;117392;1185;23576;-55
2022/05/16 03:01:51;;;;;;;7.90;2.60;;;;;;;12.37;41.65;100798.59;117290;1185;23986;-56
2022/05/16 03:04:20;;;;;;;6.10;2.70;;;;;;;12.44;41.74;100800.08;117423;1185;23566;-55
2022/05/16 03:06:48;;;;;;;9.40;3.50;;;;;;;12.51;41.78;100800.52;117470;1185;23536;-55
2022/05/16 03:09:18;;;;;;;5.60;2.60;;;;;;;12.58;41.91;100801.13;117466;1184;23548;-55
2022/05/16 03:11:49;;;;;;;5.80;2.70;;;;;;;12.67;41.98;100800.65;117458;1180;22935;-55
2022/05/16 03:14:18;;;;;;;6.10;2.30;;;;;;;12.76;41.98;100800.17;117326;1185;22803;-55
2022/05/16 03:16:46;;;;;;;6.10;2.50;;;;;;;12.85;42.06;100802.33;117276;1185;22614;-55
2022/05/16 03:19:16;;;;;;;7.70;3.10;;;;;;;12.94;42.24;100798.48;117400;1185;23548;-55
2022/05/16 03:21:44;;;;;;;5.90;2.40;;;;;;;13.03;42.16;100793.60;117471;1184;23541;-56
2022/05/16 03:24:13;;;;;;;8.80;2.70;;;;;;;13.14;42.21;100795.89;117501;1184;23569;-55
2022/05/16 03:26:42;;;;;;;7.70;3.10;;;;;;;13.24;42.24;100795.38;117438;1185;22530;-52
2022/05/16 03:29:11;;;;;;;12.50;2.90;;;;;;;13.36;42.23;100792.70;117409;1185;22534;-55
2022/05/16 03:31:40;;;;;;;7.30;2.60;;;;;;;13.49;42.41;100793.20;117511;1186;21864;-51
2022/05/16 03:34:10;;;;;;;8.10;2.80;;;;;;;13.61;42.40;100793.69;117515;1185;23567;-56
2022/05/16 03:36:38;;;;;;;10.30;2.70;;;;;;;13.75;42.39;100798.73;117515;1185;23502;-51
2022/05/16 03:41:56;;;;;;;15.00;2.60;;;;;;;14.00;42.43;100803.90;117504;1184;23538;-51
2022/05/16 03:44:24;;;;;;;9.00;2.40;;;;;;;14.14;42.42;100804.52;117528;1182;21943;-53
2022/05/16 03:46:53;;;;;;;9.40;2.70;;;;;;;14.26;42.55;100809.73;117479;1186;21908;-52
2022/05/16 03:49:22;;;;;;;6.40;3.10;;;;;;;14.38;42.49;100809.49;117424;1185;21856;-51
2022/05/16 03:51:50;;;;;;;10.50;2.60;;;;;;;14.50;42.50;100807.48;117451;1185;24157;-56
2022/05/16 03:54:19;;;;;;;10.00;2.70;;;;;;;14.61;42.56;100807.75;117545;1184;23528;-56
2022/05/16 03:56:48;;;;;;;9.10;2.60;;;;;;;14.73;42.63;100811.42;117514;1185;22911;-55
2022/05/16 03:59:17;;;;;;;7.60;2.40;;;;;;;14.85;42.55;100809.39;117403;1183;21868;-51
2022/05/16 04:01:46;;;;;;;8.00;2.80;;;;;;;14.96;42.54;100813.02;117549;1185;23534;-56
2022/05/16 04:04:16;;;;;;;7.10;2.40;;;;;;;15.08;42.48;100818.38;117406;1184;22606;-55
2022/05/16 04:06:45;;;;;;;9.10;2.50;;;;;;;15.19;42.49;100815.82;117484;1184;23522;-52
2022/05/16 04:09:13;;;;;;;6.60;2.60;;;;;;;15.32;42.53;100815.33;117565;1185;22911;-52
2022/05/16 04:11:43;;;;;;;14.10;2.40;;;;;;;15.45;42.52;100818.55;117442;1185;23554;-51
2022/05/16 04:14:12;;;;;;;4.40;1.90;;;;;;;15.56;42.76;100821.44;117459;1185;21854;-51
2022/05/16 04:16:41;;;;;;;4.20;2.10;;;;;;;15.70;42.71;100825.66;117536;1184;23540;-51
2022/05/16 04:19:09;;;;;;;11.50;3.10;;;;;;;15.86;42.68;100823.13;117526;1185;21852;-51
2022/05/16 04:21:38;;;;;;;6.10;2.30;;;;;;;16.07;42.98;100827.91;117502;1183;24720;-55
2022/05/16 04:24:07;;;;;;;6.90;2.00;;;;;;;16.29;42.85;100824.27;117293;1186;23542;-51
2022/05/16 04:26:36;;;;;;;7.00;2.90;;;;;;;16.50;42.76;100823.13;117327;1186;23463;-52
2022/05/16 04:29:05;;;;;;;7.50;2.20;;;;;;;16.69;42.86;100822.38;117261;1186;21980;-56
2022/05/16 04:31:35;;;;;;;3.90;1.90;;;;;;;16.90;42.86;100819.24;117304;1188;22935;-55
2022/05/16 04:34:09;;;;;;;4.80;1.80;;;;;;;17.13;42.84;100817.13;117357;1185;23896;-55
2022/05/16 04:36:39;;;;;;;6.50;2.00;;;;;;;17.36;42.71;100818.52;117327;1185;21953;-55
2022/05/16 04:39:08;;;;;;;7.00;2.10;;;;;;;17.58;42.60;100819.17;117334;1185;21937;-55
2022/05/16 04:44:23;;;;;;;10.00;3.20;;;;;;;18.00;42.46;100819.67;117378;1185;23642;-55
2022/05/16 04:46:52;;;;;;;5.20;1.90;;;;;;;18.19;42.40;100824.52;117355;1185;23545;-57
2022/05/16 04:49:21;;;;;;;4.30;1.90;;;;;;;18.36;42.25;100822.08;117309;1186;22171;-57
2022/05/16 04:51:50;;;;;;;5.80;1.90;;;;;;;18.54;42.21;100825.30;117305;1186;23570;-56
2022/05/16 04:54:18;;;;;;;5.60;1.70;;;;;;;18.70;42.12;100825.09;117376;1186;23541;-56
2022/05/16 04:56:47;;;;;;;4.00;1.50;;;;;;;18.83;42.04;100820.99;117331;1186;23541;-57
2022/05/16 04:59:15;;;;;;;4.50;1.80;;;;;;;18.96;41.98;100820.14;117337;1186;21849;-53
2022/05/16 05:01:44;;;;;;;4.40;1.50;;;;;;;19.12;41.90;100824.14;117523;1184;22671;-53
2022/05/16 05:04:13;;;;;;;6.50;1.70;;;;;;;19.30;41.78;100818.42;117418;1185;21849;-53
2022/05/16 05:06:42;;;;;;;3.40;1.50;;;;;;;19.50;41.62;100821.52;117412;1185;21851;-54
2022/05/16 05:09:10;;;;;;;4.20;1.40;;;;;;;19.66;41.54;100825.29;117452;1180;22989;-53
2022/05/16 05:14:33;;;;;;;4.70;1.50;;;;;;;20.03;41.33;100828.52;117431;1185;23786;-56
2022/05/16 05:17:10;;;;;;;6.50;1.30;;;;;;;20.17;41.28;100832.87;117482;1184;23544;-54
2022/05/16 05:19:40;;;;;;;6.20;1.80;;;;;;;20.32;41.13;100832.38;117503;1185;21861;-54
2022/05/16 05:22:09;;;;;;;5.40;1.60;;;;;;;20.45;41.03;100836.22;117434;1184;21847;-54
2022/05/16 05:24:37;;;;;;;2.90;1.10;;;;;;;20.56;40.99;100833.74;117352;1186;22936;-54
2022/05/16 05:27:06;;;;;;;4.30;1.30;;;;;;;20.71;40.97;100833.23;117347;1185;23554;-57
2022/05/16 05:29:35;;;;;;;5.60;1.90;;;;;;;20.90;40.87;100832.16;117381;1184;24163;-56
2022/05/16 05:32:05;;;;;;;5.20;1.60;;;;;;;21.09;40.78;100832.85;117399;1184;22928;-55
2022/05/16 05:34:35;;;;;;;4.10;1.70;;;;;;;21.27;40.64;100830.93;117127;1186;23586;-55
2022/05/16 05:37:04;;;;;;;4.10;1.60;;;;;;;21.44;40.66;100825.80;117439;1185;21941;-57
2022/05/16 05:39:34;;;;;;;6.60;1.70;;;;;;;21.60;40.62;100826.60;117436;1185;21951;-55
2022/05/16 05:42:02;;;;;;;7.00;1.70;;;;;;;21.76;40.48;100824.55;117288;1183;22841;-57
2022/05/16 05:44:31;;;;;;;67.60;38.70;;;;;;;21.87;40.40;100828.24;117393;1185;21914;-54
2022/05/16 05:47:00;;;;;;;53.60;29.60;;;;;;;21.96;40.24;100824.20;117404;1184;23544;-54
2022/05/16 05:49:28;;;;;;;31.40;18.80;;;;;;;22.05;40.10;100826.79;117464;1184;22620;-56
2022/05/16 05:51:57;;;;;;;16.50;8.80;;;;;;;22.16;40.19;100830.15;117436;1184;22131;-55
2022/05/16 05:54:25;;;;;;;10.10;4.90;;;;;;;22.36;40.17;100829.41;117447;1185;23025;-57
2022/05/16 05:56:53;;;;;;;7.80;2.30;;;;;;;22.60;40.10;100835.86;117305;1186;21850;-55
2022/05/16 05:59:21;;;;;;;4.90;1.90;;;;;;;22.79;40.08;100832.61;117379;1185;21917;-57
2022/05/16 06:01:50;;;;;;;5.10;1.70;;;;;;;23.00;40.21;100832.34;117461;1185;21858;-56
2022/05/16 06:04:18;;;;;;;8.20;2.20;;;;;;;23.20;40.06;100829.79;117451;1183;23551;-55
2022/05/16 06:06:47;;;;;;;7.80;5.10;;;;;;;23.37;39.89;100826.08;117476;1185;21848;-52
2022/05/16 06:09:15;;;;;;;9.70;2.70;;;;;;;23.53;39.75;100827.30;117390;1185;21858;-56
2022/05/16 06:11:48;;;;;;;4.10;1.70;;;;;;;23.69;39.68;100831.19;117314;1185;23601;-56
2022/05/16 06:14:16;;;;;;;7.00;2.30;;;;;;;23.91;39.60;100832.57;117394;1186;23621;-54
2022/05/16 06:16:44;;;;;;;5.30;2.00;;;;;;;24.13;39.47;100829.65;117557;1184;22059;-54
2022/05/16 06:19:13;;;;;;;4.10;1.60;;;;;;;24.24;39.59;100833.08;117347;1185;23557;-55
2022/05/16 06:21:41;;;;;;;5.20;1.50;;;;;;;24.52;39.63;100834.56;117320;1186;23544;-55
2022/05/16 06:25:31;;;;;;;8.00;2.00;;;;;;;24.88;39.53;100831.90;117433;1185;23534;-54
2022/05/16 06:27:00;;;;;;;3.40;1.70;;;;;;;25.19;39.36;100829.19;117348;1185;23572;-54
2022/05/16 06:29:33;;;;;;;3.50;1.40;;;;;;;25.46;39.33;100829.02;117292;1186;24003;-57
2022/05/16 06:32:02;;;;;;;3.40;1.10;;;;;;;25.72;39.16;100829.44;117178;1186;23570;-54
2022/05/16 06:34:32;;;;;;;5.10;1.70;;;;;;;25.98;39.11;100829.03;117486;1186;21908;-55
2022/05/16 06:37:00;;;;;;;5.40;1.30;;;;;;;26.20;39.00;100825.39;117562;1185;23542;-55
2022/05/16 06:39:29;;;;;;;3.30;1.40;;;;;;;26.40;38.90;100826.88;117498;1186;23563;-56
2022/05/16 06:41:57;;;;;;;6.50;1.40;;;;;;;26.57;38.75;100826.31;117517;1184;22912;-56
2022/05/16 06:44:28;;;;;;;4.70;1.60;;;;;;;26.74;38.57;100825.67;117497;1185;23536;-56
2022/05/16 06:47:01;;;;;;;3.50;1.00;;;;;;;26.80;38.16;100824.10;117426;1184;23999;-56
2022/05/16 06:49:29;;;;;;;2.90;1.10;;;;;;;26.81;37.63;100824.04;117517;1180;23649;-56
2022/05/16 06:51:57;;;;;;;4.40;1.20;;;;;;;26.78;37.47;100828.58;117487;1185;22911;-56
2022/05/16 06:54:26;;;;;;;5.00;1.50;;;;;;;26.77;37.43;100825.84;117511;1185;23537;-55
2022/05/16 06:56:54;;;;;;;7.70;1.30;;;;;;;26.79;37.43;100828.36;117444;1186;21851;-55
2022/05/16 06:59:22;;;;;;;7.30;1.40;;;;;;;26.84;37.28;100828.92;117426;1185;22900;-55
2022/05/16 07:01:50;;;;;;;5.00;1.00;;;;;;;26.90;37.31;100826.50;117445;1184;22821;-57
2022/05/16 07:04:19;;;;;;;4.50;1.70;;;;;;;27.04;37.29;100823.48;117383;1185;22786;-56
2022/05/16 07:06:47;;;;;;;4.60;1.20;;;;;;;27.11;36.93;100826.75;117404;1185;23097;-55
2022/05/16 07:09:15;;;;;;;4.90;1.20;;;;;;;27.18;36.89;100822.96;117486;1185;23726;-55
2022/05/16 07:11:51;;;;;;;6.00;1.80;;;;;;;27.19;36.52;100823.64;117378;1185;23811;-55
2022/05/16 07:14:20;;;;;;;7.00;1.70;;;;;;;27.16;36.36;100822.60;117545;1184;22620;-55
2022/05/16 07:16:48;;;;;;;4.30;1.30;;;;;;;27.17;36.34;100824.10;117407;1185;23553;-55
2022/05/16 07:19:17;;;;;;;4.90;1.80;;;;;;;27.34;36.40;100825.05;117446;1186;23564;-54
2022/05/16 07:21:45;;;;;;;6.30;2.00;;;;;;;27.47;36.29;100821.54;117506;1186;24127;-55
2022/05/16 07:24:13;;;;;;;5.60;1.80;;;;;;;27.56;36.09;100822.33;117314;1184;21837;-55
2022/05/16 07:29:29;;;;;;;3.70;1.20;;;;;;;27.45;35.63;100833.38;117367;1185;24225;-55
2022/05/16 07:31:57;;;;;;;4.10;1.00;;;;;;;27.32;35.54;100829.09;117492;1184;21852;-55
2022/05/16 07:34:25;;;;;;;2.10;0.70;;;;;;;27.27;35.60;100826.67;117350;1185;23590;-55
2022/05/16 07:36:54;;;;;;;4.40;1.60;;;;;;;27.55;36.00;100828.88;117343;1185;23544;-56
2022/05/16 07:39:26;;;;;;;5.60;1.30;;;;;;;27.88;35.89;100829.02;117354;1185;21880;-55
2022/05/16 07:41:54;;;;;;;3.80;1.20;;;;;;;28.15;35.75;100824.20;117437;1185;23541;-55
2022/05/16 07:44:22;;;;;;;5.50;1.30;;;;;;;28.46;35.79;100822.87;117518;1185;22823;-55
2022/05/16 07:46:50;;;;;;;3.10;1.10;;;;;;;28.68;35.64;100819.23;117550;1186;23563;-55
2022/05/16 07:49:20;;;;;;;4.90;1.30;;;;;;;28.78;35.37;100822.82;117491;1184;23542;-55
2022/05/16 07:51:48;;;;;;;5.60;1.50;;;;;;;28.82;35.25;100824.13;117468;1185;22828;-55
2022/05/16 07:54:16;;;;;;;3.80;0.90;;;;;;;28.86;35.08;100826.85;117387;1185;21853;-55
2022/05/16 07:56:45;;;;;;;4.40;1.20;;;;;;;28.92;34.94;100828.67;117337;1185;23544;-56
2022/05/16 07:59:14;;;;;;;3.50;1.00;;;;;;;28.97;34.70;100823.40;117456;1185;23550;-55
2022/05/16 08:01:42;;;;;;;3.40;1.00;;;;;;;29.04;34.70;100819.05;117366;1182;21853;-55
2022/05/16 08:04:10;;;;;;;4.40;1.20;;;;;;;29.26;34.77;100816.64;117425;1185;22932;-55
2022/05/16 08:06:38;;;;;;;4.30;1.00;;;;;;;29.44;34.52;100821.16;117424;1186;23560;-55
2022/05/16 08:11:58;;;;;;;3.60;1.10;;;;;;;29.78;34.35;100821.66;117322;1186;23544;-55
2022/05/16 08:14:27;;;;;;;3.90;1.10;;;;;;;29.88;34.25;100820.25;117465;1185;23678;-56
2022/05/16 08:16:55;;;;;;;3.00;1.20;;;;;;;29.93;34.04;100820.71;117374;1185;23544;-55
2022/05/16 08:19:23;;;;;;;3.30;1.00;;;;;;;29.84;33.44;100818.43;117297;1186;23569;-55
2022/05/16 08:21:52;;;;;;;4.90;1.60;;;;;;;29.74;33.68;100824.35;117405;1185;24162;-55
2022/05/16 08:24:20;;;;;;;2.90;1.10;;;;;;;29.65;33.64;100821.50;117390;1185;22890;-56
2022/05/16 08:26:49;;;;;;;2.80;1.40;;;;;;;29.58;33.52;100816.53;117342;1185;23569;-55
2022/05/16 08:29:17;;;;;;;4.00;0.90;;;;;;;29.58;33.45;100817.56;117376;1185;24175;-56
2022/05/16 08:31:45;;;;;;;3.50;0.90;;;;;;;29.65;33.27;100816.04;117331;1187;24142;-54
2022/05/16 08:34:14;;;;;;;2.70;1.10;;;;;;;29.73;33.17;100813.23;117370;1185;21862;-55
2022/05/16 08:42:16;;;;;;;3.10;0.90;;;;;;;30.24;32.91;100802.29;117341;1186;24152;-56
2022/05/16 08:44:59;;;;;;;4.30;0.90;;;;;;;30.43;33.02;100802.02;117259;1186;23459;-55
2022/05/16 08:47:39;;;;;;;4.90;0.90;;;;;;;30.75;32.80;100798.63;117322;1186;24153;-56
2022/05/16 08:50:16;;;;;;;4.30;2.00;;;;;;;30.78;32.21;100802.44;117079;1186;24140;-55
2022/05/16 08:53:05;;;;;;;2.60;1.20;;;;;;;30.38;32.14;100799.80;117311;1183;22633;-56
2022/05/16 08:55:48;;;;;;;2.40;0.70;;;;;;;30.05;32.07;100804.02;118562;1185;22918;-56
2022/05/16 08:58:33;;;;;;;3.70;0.90;;;;;;;29.82;31.42;100806.11;119480;1185;21834;-56
2022/05/16 09:01:10;;;;;;;2.70;1.00;;;;;;;29.68;31.23;100811.80;117296;1185;23553;-57
2022/05/16 09:03:53;;;;;;;3.20;1.10;;;;;;;29.76;31.57;100807.19;117413;1184;24248;-57
2022/05/16 09:07:07;;;;;;;4.80;1.20;;;;;;;29.89;31.86;100804.83;117322;1185;23545;-57
2022/05/16 09:10:05;;;;;;;2.80;1.10;;;;;;;30.01;31.09;100805.71;117343;1186;21876;-56
2022/05/16 09:12:41;;;;;;;4.40;1.20;;;;;;;30.02;31.05;100808.02;117319;1186;23546;-57
2022/05/16 09:15:19;;;;;;;1.60;0.90;;;;;;;30.02;31.15;100802.04;117367;1186;23541;-57
2022/05/16 09:18:07;;;;;;;2.20;1.00;;;;;;;29.96;31.09;100807.80;117466;1182;21878;-56
2022/05/16 09:20:44;;;;;;;2.60;0.90;;;;;;;30.02;31.04;100803.19;117421;1185;23567;-56
2022/05/16 09:23:51;;;;;;;4.30;1.40;;;;;;;30.08;31.05;100796.98;117398;1185;21852;-57
2022/05/16 09:26:35;;;;;;;2.50;1.00;;;;;;;30.05;30.95;100796.02;116920;1188;22183;-58
2022/05/16 09:29:23;;;;;;;4.40;1.50;;;;;;;29.97;31.01;100800.35;116933;1188;21850;-56
2022/05/16 09:31:55;;;;;;;3.10;1.00;;;;;;;29.98;31.07;100793.70;117227;1186;21853;-56
2022/05/16 09:34:30;;;;;;;4.90;1.50;;;;;;;30.16;30.75;100794.92;117261;1181;22725;-57
2022/05/16 09:36:58;;;;;;;4.60;1.70;;;;;;;30.33;30.72;100794.85;117519;1186;22078;-57
2022/05/16 09:39:31;;;;;;;4.20;1.20;;;;;;;30.42;30.45;100796.02;117528;1182;23550;-56
2022/05/16 09:42:18;;;;;;;2.30;0.90;;;;;;;30.49;30.49;100789.63;117451;1184;22896;-56
2022/05/16 09:44:53;;;;;;;4.80;1.50;;;;;;;30.69;30.75;100779.68;117473;1185;23531;-57
2022/05/16 09:47:34;;;;;;;4.90;1.10;;;;;;;30.91;30.71;100774.59;117349;1185;22918;-57
2022/05/16 09:50:03;;;;;;;4.20;1.20;;;;;;;31.07;30.64;100769.27;117389;1185;22903;-56
2022/05/16 09:52:37;;;;;;;3.50;1.70;;;;;;;31.04;30.44;100766.84;117373;1185;22822;-56
2022/05/16 09:55:09;;;;;;;4.50;1.20;;;;;;;30.85;30.24;100766.39;117362;1185;23497;-56
2022/05/16 09:57:49;;;;;;;3.50;1.00;;;;;;;30.56;30.06;100765.27;117506;1186;21896;-56
2022/05/16 10:00:31;;;;;;;5.50;1.30;;;;;;;30.31;29.86;100767.13;117465;1185;24186;-56
2022/05/16 10:03:24;;;;;;;4.30;1.10;;;;;;;30.30;30.05;100762.69;117442;1181;23535;-55
2022/05/16 10:05:53;;;;;;;14.90;2.00;;;;;;;30.42;29.83;100760.32;117511;1185;22809;-56
2022/05/16 10:08:38;;;;;;;11.00;1.60;;;;;;;30.60;30.07;100750.45;117509;1185;23550;-55
2022/05/16 10:11:15;;;;;;;11.50;2.00;;;;;;;30.82;29.89;100751.46;117510;1185;22806;-55
2022/05/16 10:13:44;;;;;;;2.50;1.00;;;;;;;30.88;29.78;100751.14;117488;1185;21938;-56
2022/05/16 10:16:12;;;;;;;7.70;1.20;;;;;;;30.86;29.63;100748.27;117538;1186;22062;-56
2022/05/16 10:19:05;;;;;;;4.40;1.20;;;;;;;30.90;29.88;100746.09;117355;1185;22803;-57
2022/05/16 10:21:36;;;;;;;5.70;1.60;;;;;;;31.12;30.00;100742.59;117386;1185;22816;-56
2022/05/16 10:24:07;;;;;;;2.90;1.00;;;;;;;31.31;29.97;100733.38;117528;1183;21864;-56
2022/05/16 10:26:39;;;;;;;2.40;1.10;;;;;;;31.43;29.86;100728.30;117304;1186;22922;-57
2022/05/16 10:29:12;;;;;;;5.80;1.60;;;;;;;31.40;29.70;100726.93;117234;1186;23470;-56
2022/05/16 10:34:48;;;;;;;5.40;1.30;;;;;;;31.21;29.32;100729.12;117123;1188;21862;-57
2022/05/16 10:37:16;;;;;;;2.80;1.20;;;;;;;31.25;29.10;100725.05;117333;1185;21854;-56
2022/05/16 10:39:57;;;;;;;3.60;1.10;;;;;;;31.29;28.90;100725.36;117123;1186;23031;-56
2022/05/16 10:42:50;;;;;;;1.70;1.00;;;;;;;31.35;29.09;100728.50;117232;1186;21849;-57
2022/05/16 10:45:20;;;;;;;3.90;1.10;;;;;;;31.49;28.95;100725.74;117281;1185;21857;-57
2022/05/16 10:47:54;;;;;;;3.00;1.20;;;;;;;31.59;28.90;100721.98;117320;1183;21932;-55
2022/05/16 10:50:32;;;;;;;3.20;1.40;;;;;;;31.77;28.87;100719.45;117314;1182;24168;-57
2022/05/16 10:53:12;;;;;;;6.50;1.10;;;;;;;31.95;29.00;100722.52;117368;1185;22748;-56
2022/05/16 10:55:46;;;;;;;;;;;;;;;31.83;28.67;100721.75;117260;1185;23551;-57
2022/05/16 10:58:22;;;;;;;2.20;0.90;;;;;;;31.41;28.53;100719.89;117332;1186;21880;-57
2022/05/16 11:01:03;;;;;;;7.00;1.00;;;;;;;31.22;28.62;100718.44;117387;1185;21845;-56
2022/05/16 11:04:02;;;;;;;3.10;1.20;;;;;;;31.36;28.79;100720.04;117492;1185;23543;-56
2022/05/16 11:06:34;;;;;;;3.60;1.20;;;;;;;31.50;28.79;100711.31;117327;1185;23640;-55
2022/05/16 11:09:26;;;;;;;5.20;1.50;;;;;;;31.55;28.81;100703.05;117245;1185;21851;-55
2022/05/16 11:12:29;;;;;;;3.40;1.10;;;;;;;31.56;28.58;100710.49;117270;1186;21853;-56
2022/05/16 11:15:12;;;;;;;2.30;1.30;;;;;;;31.59;28.54;100715.10;117186;1186;23645;-56
2022/05/16 11:18:01;;;;;;;4.10;1.40;;;;;;;31.68;28.59;100711.94;117270;1185;23445;-56
2022/05/16 11:20:42;;;;;;;7.40;2.20;;;;;;;31.57;28.47;100713.70;117229;1186;23548;-57
2022/05/16 11:23:26;;;;;;;;;;;;;;;31.49;28.45;100711.88;117270;1185;21843;-57
2022/05/16 11:26:07;;;;;;;4.30;1.50;;;;;;;31.48;28.50;100715.80;117196;1183;22924;-56
2022/05/16 11:29:16;;;;;;;6.10;1.50;;;;;;;31.20;28.27;100714.10;117186;1185;23000;-56
2022/05/16 11:31:29;;;;;;;3.30;1.60;;;;;;;31.07;28.36;100708.11;117410;1185;24159;-55
2022/05/16 11:33:59;;;;;;;3.80;1.40;;;;;;;31.09;28.44;100705.52;117387;1185;24152;-55
2022/05/16 11:36:45;;;;;;;7.90;1.90;;;;;;;31.17;28.56;100708.37;117354;1186;23466;-56
2022/05/16 11:39:30;;;;;;;4.30;1.40;;;;;;;31.25;28.30;100706.73;117346;1185;21938;-56
2022/05/16 11:42:16;;;;;;;5.60;1.40;;;;;;;31.23;28.24;100698.58;117374;1185;22919;-55
2022/05/16 11:44:55;;;;;;;4.60;1.60;;;;;;;31.24;28.20;100698.20;117413;1185;23462;-56
2022/05/16 11:47:34;;;;;;;6.40;1.40;;;;;;;31.19;28.19;100695.19;117358;1185;24166;-56
2022/05/16 11:50:54;;;;;;;3.50;1.40;;;;;;;31.12;28.08;100692.02;117349;1180;24160;-56
2022/05/16 11:53:48;;;;;;;6.90;1.40;;;;;;;30.79;27.75;100692.54;117321;1186;21947;-56
2022/05/16 12:02:15;;;;;;;3.60;1.00;;;;;;;30.04;27.90;100688.12;117301;1185;23537;-56
2022/05/16 12:04:52;;;;;;;3.10;1.10;;;;;;;30.19;27.95;100684.27;117374;1185;21930;-56
2022/05/16 12:07:45;;;;;;;2.90;1.10;;;;;;;30.31;27.72;100680.23;117289;1186;22054;-56
2022/05/16 12:10:23;;;;;;;3.50;1.20;;;;;;;30.45;27.74;100681.49;117292;1185;22094;-56
2022/05/16 12:13:18;;;;;;;4.70;1.30;;;;;;;30.56;27.58;100680.85;117378;1185;22918;-56
2022/05/16 12:15:47;;;;;;;4.20;1.30;;;;;;;30.73;27.58;100676.08;117367;1185;21853;-57
2022/05/16 12:18:33;;;;;;;4.50;1.40;;;;;;;30.78;27.55;100676.13;117293;1185;21915;-57